Time;durP1;ratioP1;P1;durP2;ratioP2;P2;SDS_P1;SDS_P2;PMS_P1;PMS_P2;Temp;Humidity;BMP_temperature;BMP_pressure;BME280_temperature;BME280_humidity;BME280_pressure;Samples;Min_cycle;Max_cycle;Signal;HPM_P1;HPM_P2
2021/09/18 00:01:34;;;;;;;3.33;2.37;;;;;;;14.45;81.51;100815.44;1799949;79;21524;-82
2021/09/18 00:04:01;;;;;;;4.55;2.47;;;;;;;14.41;81.50;100818.50;1800700;79;21091;-82
2021/09/18 00:06:30;;;;;;;2.72;2.33;;;;;;;14.40;81.68;100814.09;1800652;79;21133;-82
2021/09/18 00:08:57;;;;;;;6.67;2.60;;;;;;;14.41;81.63;100819.81;1800426;79;21065;-82
2021/09/18 00:11:24;;;;;;;3.25;2.47;;;;;;;14.39;81.50;100817.15;1800699;79;21742;-82
2021/09/18 00:13:51;;;;;;;3.52;2.72;;;;;;;14.39;81.54;100816.27;1800574;79;21528;-82
2021/09/18 00:16:19;;;;;;;2.60;2.30;;;;;;;14.37;81.56;100813.59;1768858;79;21079;-82
2021/09/18 00:18:46;;;;;;;4.42;2.62;;;;;;;14.39;81.70;100814.94;1800560;79;21560;-82
2021/09/18 00:21:13;;;;;;;3.35;2.62;;;;;;;14.43;81.61;100819.84;1800623;79;21026;-82
2021/09/18 00:23:39;;;;;;;3.58;2.40;;;;;;;14.38;81.37;100815.83;1800567;79;22579;-82
2021/09/18 00:26:06;;;;;;;2.80;2.50;;;;;;;14.35;81.38;100818.44;1800515;79;21473;-82
2021/09/18 00:28:33;;;;;;;2.95;2.25;;;;;;;14.31;81.34;100812.66;1800673;79;21622;-82
2021/09/18 00:31:00;;;;;;;4.75;2.10;;;;;;;14.28;81.41;100816.14;1800698;79;20979;-82
2021/09/18 00:33:26;;;;;;;4.70;2.25;;;;;;;14.26;81.34;100824.95;1800690;79;21002;-83
2021/09/18 00:35:53;;;;;;;2.45;2.25;;;;;;;14.23;81.43;100820.53;1800747;79;21833;-82
2021/09/18 00:38:20;;;;;;;2.55;2.15;;;;;;;14.22;81.52;100817.86;1800714;79;21520;-84
2021/09/18 00:40:47;;;;;;;2.50;2.00;;;;;;;14.25;81.57;100821.43;1800642;79;21058;-83
2021/09/18 00:43:14;;;;;;;2.30;2.10;;;;;;;14.26;81.40;100831.13;1800590;79;21057;-83
2021/09/18 00:45:40;;;;;;;2.77;2.10;;;;;;;14.24;81.51;100830.23;1800683;79;21011;-83
2021/09/18 00:48:07;;;;;;;2.05;1.60;;;;;;;14.26;81.47;100836.42;1800764;79;21927;-83
2021/09/18 00:50:34;;;;;;;3.87;1.85;;;;;;;14.25;81.29;100835.11;1801631;79;21153;-82
2021/09/18 00:53:01;;;;;;;2.45;1.92;;;;;;;14.16;81.27;100842.50;1804466;79;21034;-83
2021/09/18 00:55:28;;;;;;;2.22;1.70;;;;;;;14.12;81.44;100841.57;1804529;79;21073;-82
2021/09/18 00:57:54;;;;;;;3.08;1.80;;;;;;;14.12;81.57;100842.90;1804892;79;21055;-83
2021/09/18 01:00:22;;;;;;;2.75;1.90;;;;;;;14.15;81.59;100844.68;1804553;79;21761;-82
2021/09/18 01:02:48;;;;;;;2.58;1.70;;;;;;;14.17;81.59;100837.64;1804764;79;21591;-82
2021/09/18 01:05:15;;;;;;;2.67;1.55;;;;;;;14.18;81.46;100845.61;1804840;79;21077;-82
2021/09/18 01:07:43;;;;;;;5.33;1.85;;;;;;;14.16;81.36;100850.00;1804685;79;21070;-83
2021/09/18 01:10:11;;;;;;;1.98;1.70;;;;;;;14.14;81.28;100857.48;1805079;79;21113;-83
2021/09/18 01:12:59;;;;;;;2.60;1.67;;;;;;;14.10;81.25;100854.34;1804759;79;22737;-83
2021/09/18 01:15:27;;;;;;;1.95;1.75;;;;;;;14.10;81.32;100855.23;1804733;79;21002;-81
2021/09/18 01:17:55;;;;;;;4.22;1.52;;;;;;;14.04;81.17;100855.16;1804591;79;21042;-82
2021/09/18 01:20:23;;;;;;;3.67;1.77;;;;;;;14.01;81.27;100848.49;1804508;79;21054;-82
2021/09/18 01:22:50;;;;;;;2.30;1.80;;;;;;;14.00;81.35;100852.00;1804534;79;21053;-82
2021/09/18 01:25:17;;;;;;;5.33;1.60;;;;;;;14.01;81.40;100856.44;1804609;79;21343;-82
2021/09/18 01:27:46;;;;;;;3.20;1.42;;;;;;;13.99;81.40;100853.77;1804588;79;21595;-82
2021/09/18 01:30:26;;;;;;;2.37;1.57;;;;;;;13.97;81.37;100850.21;1804801;79;21546;-82
2021/09/18 01:32:52;;;;;;;4.47;1.80;;;;;;;13.97;81.53;100846.23;1777300;79;21174;-81
2021/09/18 01:35:19;;;;;;;3.60;1.72;;;;;;;14.00;81.49;100846.70;1804761;79;21105;-81
2021/09/18 01:37:50;;;;;;;4.20;1.65;;;;;;;14.02;81.57;100850.70;1804835;79;21749;-81
2021/09/18 01:40:21;;;;;;;2.42;1.75;;;;;;;14.03;81.45;100852.05;1803880;79;21002;-82
2021/09/18 01:42:51;;;;;;;4.28;1.95;;;;;;;13.99;81.23;100847.14;1805064;79;21012;-82
2021/09/18 01:45:16;;;;;;;2.12;1.90;;;;;;;13.95;81.29;100847.98;1803960;79;21186;-81
2021/09/18 01:47:48;;;;;;;2.83;1.67;;;;;;;13.92;81.24;100849.70;1804937;79;21105;-82
2021/09/18 01:50:45;;;;;;;3.42;1.90;;;;;;;13.90;81.48;100850.12;1803375;79;21800;-82
2021/09/18 01:53:09;;;;;;;2.50;1.75;;;;;;;13.89;81.51;100847.91;1800070;79;21018;-82
2021/09/18 01:55:36;;;;;;;2.62;1.60;;;;;;;13.86;81.37;100850.95;1800474;79;21077;-82
2021/09/18 01:58:03;;;;;;;6.25;2.22;;;;;;;13.80;81.35;100851.31;1800957;79;21042;-82
2021/09/18 02:00:31;;;;;;;2.72;1.87;;;;;;;13.77;81.58;100854.35;1800884;79;21063;-82
2021/09/18 02:02:57;;;;;;;3.52;1.87;;;;;;;13.77;81.60;100850.38;1800704;79;21692;-82
2021/09/18 02:05:26;;;;;;;2.50;1.90;;;;;;;13.77;81.67;100857.00;1800566;79;21505;-82
2021/09/18 02:07:57;;;;;;;2.98;1.87;;;;;;;13.78;81.68;100858.79;1800794;79;21039;-81
2021/09/18 02:10:25;;;;;;;4.97;1.85;;;;;;;13.76;81.57;100852.59;1800487;79;21054;-82
2021/09/18 02:12:52;;;;;;;3.77;2.02;;;;;;;13.75;81.50;100854.33;1800731;79;21038;-82
2021/09/18 02:15:20;;;;;;;5.17;2.10;;;;;;;13.65;81.27;100863.02;1800720;79;21744;-81
2021/09/18 02:17:46;;;;;;;3.12;1.98;;;;;;;13.52;81.40;100863.70;1800642;79;21066;-82
2021/09/18 02:20:16;;;;;;;3.05;1.82;;;;;;;13.44;81.54;100871.53;1800693;79;21053;-82
2021/09/18 02:22:42;;;;;;;3.37;2.08;;;;;;;13.41;81.74;100866.19;1800573;79;21093;-82
2021/09/18 02:25:11;;;;;;;2.35;1.75;;;;;;;13.37;81.95;100869.66;1800788;79;21561;-82
2021/09/18 02:27:39;;;;;;;6.20;2.30;;;;;;;13.33;81.85;100857.26;1768824;79;21846;-82
2021/09/18 02:30:10;;;;;;;3.80;1.72;;;;;;;13.27;82.05;100865.95;1768745;79;21037;-84
2021/09/18 02:32:37;;;;;;;4.42;2.05;;;;;;;13.21;82.30;100862.78;1800905;79;21564;-83
2021/09/18 02:35:07;;;;;;;4.37;1.72;;;;;;;13.18;82.35;100866.68;1801062;79;21077;-84
2021/09/18 02:37:34;;;;;;;2.85;1.90;;;;;;;13.10;82.23;100864.36;1801076;79;21080;-83
2021/09/18 02:40:00;;;;;;;4.05;1.80;;;;;;;13.06;82.49;100867.78;1800712;79;21801;-82
2021/09/18 02:42:27;;;;;;;3.83;1.85;;;;;;;13.06;82.67;100869.55;1800727;79;21058;-82
2021/09/18 02:44:57;;;;;;;4.90;2.22;;;;;;;13.07;82.73;100870.02;1801044;79;21615;-82
2021/09/18 02:47:22;;;;;;;4.60;2.10;;;;;;;13.08;82.71;100876.63;1800500;79;21539;-82
2021/09/18 02:49:49;;;;;;;4.05;2.25;;;;;;;13.11;82.78;100870.52;1800901;79;21007;-83
2021/09/18 02:52:16;;;;;;;3.75;1.80;;;;;;;13.16;82.88;100870.17;1800742;79;21762;-83
2021/09/18 02:54:43;;;;;;;1.92;1.52;;;;;;;13.18;82.80;100866.68;1800810;79;21069;-83
2021/09/18 02:57:10;;;;;;;5.15;2.00;;;;;;;13.24;82.81;100868.53;1800522;79;21057;-82
2021/09/18 02:59:36;;;;;;;3.83;1.87;;;;;;;13.28;82.89;100867.70;1800900;79;21058;-83
2021/09/18 03:02:04;;;;;;;4.87;1.90;;;;;;;13.31;82.73;100871.77;1800797;79;20994;-82
2021/09/18 03:04:32;;;;;;;4.50;2.02;;;;;;;13.29;82.50;100874.79;1800743;79;21768;-82
2021/09/18 03:06:59;;;;;;;4.53;1.77;;;;;;;13.25;82.38;100880.90;1800620;79;21559;-82
2021/09/18 03:09:26;;;;;;;2.80;1.90;;;;;;;13.24;82.43;100879.11;1800614;79;21125;-82
2021/09/18 03:11:53;;;;;;;2.20;1.67;;;;;;;13.21;82.41;100877.72;1800743;79;21074;-83
2021/09/18 03:14:19;;;;;;;3.92;1.77;;;;;;;13.17;82.37;100885.15;1800800;79;21057;-82
2021/09/18 03:16:46;;;;;;;4.15;1.95;;;;;;;13.12;82.42;100884.17;1800724;79;21911;-82
2021/09/18 03:19:13;;;;;;;4.40;1.90;;;;;;;13.10;82.59;100885.91;1800592;79;21560;-83
2021/09/18 03:21:40;;;;;;;3.22;1.95;;;;;;;13.06;82.64;100886.28;1800641;79;21049;-83
2021/09/18 03:24:09;;;;;;;3.45;2.00;;;;;;;13.06;82.83;100888.92;1800782;79;21541;-82
2021/09/18 03:26:35;;;;;;;6.03;2.10;;;;;;;13.03;82.77;100896.38;1800670;79;21057;-82
2021/09/18 03:29:03;;;;;;;3.65;2.10;;;;;;;12.97;82.78;100888.36;1800842;79;21757;-82
2021/09/18 03:31:30;;;;;;;8.08;2.22;;;;;;;12.92;82.81;100895.30;1800648;79;21014;-83
2021/09/18 03:33:57;;;;;;;2.02;1.67;;;;;;;12.88;83.01;100893.48;1800864;79;22485;-83
2021/09/18 03:36:24;;;;;;;3.72;2.17;;;;;;;12.86;83.01;100898.25;1801005;79;21065;-83
2021/09/18 03:38:51;;;;;;;3.20;2.00;;;;;;;12.85;83.29;100894.73;1800855;79;21066;-83
2021/09/18 03:41:18;;;;;;;5.22;1.70;;;;;;;12.87;83.40;100900.05;1800772;79;21740;-83
2021/09/18 03:43:44;;;;;;;3.55;1.90;;;;;;;12.87;83.55;100903.56;1800641;79;21599;-83
2021/09/18 03:46:11;;;;;;;2.45;2.08;;;;;;;12.86;83.39;100903.53;1800629;79;21023;-82
2021/09/18 03:48:38;;;;;;;3.35;2.12;;;;;;;12.80;83.65;100901.67;1800485;79;21144;-82
2021/09/18 03:51:04;;;;;;;4.92;2.55;;;;;;;12.77;83.45;100910.44;1800470;79;21126;-83
2021/09/18 03:53:36;;;;;;;3.65;2.72;;;;;;;12.67;83.39;100912.88;1800372;79;21026;-83
2021/09/18 03:56:02;;;;;;;3.75;2.85;;;;;;;12.58;83.62;100907.01;1800853;79;21517;-82
2021/09/18 03:58:32;;;;;;;4.12;3.30;;;;;;;12.52;83.67;100902.50;1800900;79;21054;-82
2021/09/18 04:00:57;;;;;;;4.37;3.45;;;;;;;12.42;83.95;100909.77;1800484;79;21077;-82
2021/09/18 04:03:27;;;;;;;4.12;3.40;;;;;;;12.33;84.08;100909.17;1800764;79;21077;-83
2021/09/18 04:05:58;;;;;;;3.75;3.17;;;;;;;12.26;84.32;100916.49;1768905;79;22404;-82
2021/09/18 04:08:23;;;;;;;5.33;3.47;;;;;;;12.22;84.77;100919.49;1799861;79;21524;-83
2021/09/18 04:10:50;;;;;;;5.37;3.00;;;;;;;12.23;84.91;100919.94;1800647;79;21504;-83
2021/09/18 04:13:17;;;;;;;2.90;2.70;;;;;;;12.17;85.50;100934.33;1800601;79;21023;-83
2021/09/18 04:15:43;;;;;;;4.03;2.70;;;;;;;12.11;85.97;100923.66;1800561;79;21085;-83
2021/09/18 04:18:10;;;;;;;3.33;3.00;;;;;;;12.05;85.80;100926.17;1800754;79;21923;-82
2021/09/18 04:20:37;;;;;;;3.55;2.80;;;;;;;12.00;85.62;100937.05;1800700;79;21606;-82
2021/09/18 04:23:04;;;;;;;3.67;2.45;;;;;;;11.97;85.53;100940.48;1800992;79;21061;-84
2021/09/18 04:25:31;;;;;;;3.60;2.52;;;;;;;11.95;85.66;100942.20;1801077;79;21035;-85
2021/09/18 04:28:01;;;;;;;3.85;2.70;;;;;;;11.94;85.59;100939.11;1801202;79;21014;-85
2021/09/18 04:30:29;;;;;;;5.12;2.70;;;;;;;11.94;85.66;100935.59;1800954;79;22456;-85
2021/09/18 04:32:57;;;;;;;3.92;2.25;;;;;;;11.93;85.65;100947.88;1769356;79;21026;-85
2021/09/18 04:35:28;;;;;;;3.58;2.52;;;;;;;11.94;85.82;100948.34;1801226;79;21050;-85
2021/09/18 04:37:54;;;;;;;2.87;2.20;;;;;;;11.97;85.84;100947.08;1769086;79;21109;-79
2021/09/18 04:40:21;;;;;;;3.55;2.05;;;;;;;11.97;85.68;100949.71;1800477;79;21499;-80
2021/09/18 04:42:48;;;;;;;6.50;2.15;;;;;;;11.95;85.78;100952.75;1800359;79;21771;-80
2021/09/18 04:45:15;;;;;;;3.05;2.70;;;;;;;11.97;85.79;100961.59;1800522;79;21042;-81
2021/09/18 04:47:41;;;;;;;2.60;2.27;;;;;;;11.98;85.69;100953.27;1800487;79;21065;-80
2021/09/18 04:50:09;;;;;;;2.75;2.20;;;;;;;11.98;85.60;100952.83;1800924;79;21586;-81
2021/09/18 04:52:35;;;;;;;3.42;1.80;;;;;;;12.03;85.53;100957.80;1800121;79;21062;-81
2021/09/18 04:55:02;;;;;;;3.12;2.27;;;;;;;12.03;85.41;100963.06;1799624;79;21236;-81
2021/09/18 04:57:29;;;;;;;4.35;2.58;;;;;;;12.02;85.24;100965.66;1800350;79;21167;-81
2021/09/18 04:59:56;;;;;;;2.52;2.20;;;;;;;12.00;84.99;100971.34;1800448;79;21046;-81
2021/09/18 05:02:25;;;;;;;3.42;2.08;;;;;;;12.00;85.03;100970.02;1800320;79;21050;-81
2021/09/18 05:04:52;;;;;;;2.52;2.08;;;;;;;11.98;85.03;100983.61;1800850;79;21058;-83
2021/09/18 05:07:18;;;;;;;4.75;2.20;;;;;;;11.94;84.90;100980.44;1800833;79;21756;-82
2021/09/18 05:09:45;;;;;;;3.15;2.17;;;;;;;11.81;84.79;100980.55;1800331;79;21634;-81
2021/09/18 05:12:14;;;;;;;2.87;2.02;;;;;;;11.72;85.21;100986.48;1799938;79;21105;-82
2021/09/18 05:14:45;;;;;;;3.62;2.10;;;;;;;11.66;85.17;100989.86;1800596;79;21026;-82
2021/09/18 05:17:11;;;;;;;5.35;2.20;;;;;;;11.59;85.39;100988.36;1762606;80;21093;-82
2021/09/18 05:19:38;;;;;;;2.83;2.10;;;;;;;11.57;85.40;100993.58;1768781;81;21808;-82
2021/09/18 05:22:05;;;;;;;2.30;2.00;;;;;;;11.56;85.38;101003.69;1768691;81;21345;-82
2021/09/18 05:24:37;;;;;;;3.22;2.00;;;;;;;11.53;85.49;100998.76;1768625;81;21030;-82
2021/09/18 05:27:08;;;;;;;3.75;2.45;;;;;;;11.55;85.51;100995.73;1768997;81;21094;-82
2021/09/18 05:29:43;;;;;;;5.15;2.45;;;;;;;11.54;85.38;100993.93;1768431;81;21121;-82
2021/09/18 05:32:09;;;;;;;3.05;2.27;;;;;;;11.52;85.58;100991.69;1768799;81;21874;-82
2021/09/18 05:34:40;;;;;;;6.03;2.62;;;;;;;11.55;85.68;100997.05;1768095;81;21081;-81
2021/09/18 05:37:07;;;;;;;3.25;2.20;;;;;;;11.59;85.67;101005.06;1768970;81;21077;-81
2021/09/18 05:39:35;;;;;;;5.10;2.20;;;;;;;11.64;85.39;101002.55;1768570;81;21321;-81
2021/09/18 05:42:02;;;;;;;3.50;2.15;;;;;;;11.63;85.23;101006.91;1768459;81;21109;-81
2021/09/18 05:44:31;;;;;;;4.87;2.40;;;;;;;11.63;85.11;101009.55;1768666;81;21680;-81
2021/09/18 05:46:58;;;;;;;6.03;2.25;;;;;;;11.64;85.10;100999.91;1768882;81;21572;-81
2021/09/18 05:49:26;;;;;;;3.25;2.30;;;;;;;11.68;85.01;101005.72;1768695;81;21070;-81
2021/09/18 05:51:52;;;;;;;3.67;2.10;;;;;;;11.67;84.68;101019.34;1774950;79;21148;-81
2021/09/18 05:54:19;;;;;;;3.87;2.40;;;;;;;11.66;84.70;101008.75;1800525;79;21046;-81
2021/09/18 05:56:46;;;;;;;3.47;2.25;;;;;;;11.66;84.72;101019.30;1800501;79;21793;-81
2021/09/18 05:59:13;;;;;;;5.10;2.95;;;;;;;11.69;84.65;101014.08;1800706;79;21030;-83
2021/09/18 06:01:39;;;;;;;6.05;3.05;;;;;;;11.71;84.66;101016.77;1800740;79;21038;-82
2021/09/18 06:04:06;;;;;;;3.75;2.77;;;;;;;11.79;84.67;101016.54;1800708;79;21662;-84
2021/09/18 06:06:33;;;;;;;4.05;2.98;;;;;;;11.83;84.44;101020.59;1800454;79;21480;-85
2021/09/18 06:09:00;;;;;;;5.53;3.40;;;;;;;11.86;84.20;101019.77;1800837;79;21793;-83
2021/09/18 06:11:26;;;;;;;5.22;4.10;;;;;;;11.87;84.16;101026.84;1800690;79;22082;-82
2021/09/18 06:13:53;;;;;;;5.10;3.90;;;;;;;11.86;84.11;101038.22;1800609;79;21666;-82
2021/09/18 06:16:24;;;;;;;5.05;2.62;;;;;;;11.86;83.99;101033.87;1800634;79;21516;-83
2021/09/18 06:18:50;;;;;;;4.03;2.70;;;;;;;11.88;84.07;101037.87;1800278;79;21000;-83
2021/09/18 06:21:17;;;;;;;4.30;3.08;;;;;;;11.87;83.84;101032.11;1800862;79;22990;-82
2021/09/18 06:23:43;;;;;;;4.50;3.65;;;;;;;11.86;83.83;101032.95;1800705;79;21599;-82
2021/09/18 06:26:10;;;;;;;7.08;5.50;;;;;;;11.86;83.87;101035.19;1800784;79;21049;-83
2021/09/18 06:28:37;;;;;;;4.08;2.67;;;;;;;11.89;83.82;101042.70;1800850;79;21091;-83
2021/09/18 06:31:03;;;;;;;4.20;2.10;;;;;;;11.92;83.74;101046.75;1800929;79;21761;-83
2021/09/18 06:33:30;;;;;;;4.50;3.22;;;;;;;11.87;83.45;101051.89;1800847;79;22371;-83
2021/09/18 06:35:57;;;;;;;2.83;2.02;;;;;;;11.79;83.10;101050.39;1800695;79;22340;-83
2021/09/18 06:38:24;;;;;;;4.87;2.20;;;;;;;11.75;83.08;101049.86;1801012;79;21273;-84
2021/09/18 06:40:51;;;;;;;4.03;2.33;;;;;;;11.72;83.01;101059.43;1800855;79;21061;-83
2021/09/18 06:43:19;;;;;;;5.75;2.22;;;;;;;11.69;83.13;101051.00;1800881;79;21102;-83
2021/09/18 06:45:46;;;;;;;5.42;3.45;;;;;;;11.71;83.16;101060.27;1800769;79;21756;-83
2021/09/18 06:48:13;;;;;;;4.15;1.70;;;;;;;11.74;83.07;101066.95;1800824;79;21041;-83
2021/09/18 06:50:41;;;;;;;6.40;2.62;;;;;;;11.77;83.06;101064.37;1800687;79;21081;-83
2021/09/18 06:53:08;;;;;;;5.62;3.60;;;;;;;11.83;82.93;101071.14;1800680;79;21074;-83
2021/09/18 06:55:35;;;;;;;7.45;4.10;;;;;;;11.87;82.79;101078.27;1801117;79;21058;-83
2021/09/18 06:58:02;;;;;;;6.42;3.83;;;;;;;11.88;82.52;101072.16;1800778;79;22321;-83
2021/09/18 07:00:29;;;;;;;9.60;4.08;;;;;;;11.86;82.52;101079.11;1800870;79;21536;-83
2021/09/18 07:03:08;;;;;;;6.35;3.50;;;;;;;11.90;82.50;101085.39;1801154;79;21026;-89
2021/09/18 07:05:37;;;;;;;5.25;2.60;;;;;;;11.88;82.35;101081.39;1787301;79;21062;-80
2021/09/18 07:08:04;;;;;;;4.28;2.20;;;;;;;11.92;82.30;101079.72;1789423;79;21052;-79
2021/09/18 07:10:31;;;;;;;4.53;2.45;;;;;;;11.93;82.14;101086.36;1776356;79;21734;-80
2021/09/18 07:12:58;;;;;;;4.87;2.35;;;;;;;11.94;81.85;101088.16;1799515;79;21097;-80
2021/09/18 07:15:25;;;;;;;3.02;1.98;;;;;;;11.88;81.48;101089.30;1800583;79;21555;-81
2021/09/18 07:17:51;;;;;;;2.22;1.50;;;;;;;11.88;81.58;101091.94;1800843;79;21092;-81
2021/09/18 07:20:18;;;;;;;2.70;1.80;;;;;;;11.87;81.49;101096.73;1800638;79;21104;-81
2021/09/18 07:22:45;;;;;;;3.50;2.50;;;;;;;11.85;81.31;101095.38;1800552;79;21700;-80
2021/09/18 07:25:17;;;;;;;3.95;2.55;;;;;;;11.86;81.41;101094.53;1800168;79;21120;-88
2021/09/18 07:27:42;;;;;;;6.55;2.80;;;;;;;11.89;81.27;101100.73;1786476;79;21062;-81
2021/09/18 07:30:11;;;;;;;3.77;2.70;;;;;;;11.90;81.22;101102.53;1793941;79;21084;-81
2021/09/18 07:32:37;;;;;;;2.22;1.85;;;;;;;11.90;81.12;101110.45;1802651;79;21135;-81
2021/09/18 07:35:08;;;;;;;5.35;2.00;;;;;;;11.96;81.07;101110.63;1802725;79;21746;-81
2021/09/18 07:37:35;;;;;;;3.55;2.00;;;;;;;11.94;80.75;101103.11;1803325;79;21017;-81
2021/09/18 07:40:04;;;;;;;6.83;2.65;;;;;;;11.96;80.74;101104.92;1803347;78;21077;-81
2021/09/18 07:42:31;;;;;;;2.05;1.62;;;;;;;11.96;80.69;101110.19;1803480;79;21084;-81
2021/09/18 07:44:57;;;;;;;2.72;2.02;;;;;;;11.95;80.50;101108.83;1803565;78;21538;-81
2021/09/18 07:47:24;;;;;;;2.92;2.20;;;;;;;11.94;80.46;101098.72;1803877;79;21803;-80
2021/09/18 07:49:51;;;;;;;4.53;3.30;;;;;;;11.95;80.34;101111.47;1803727;79;21065;-81
2021/09/18 07:52:18;;;;;;;4.87;3.12;;;;;;;11.90;80.19;101106.50;1803079;79;21061;-80
2021/09/18 07:54:45;;;;;;;3.98;2.77;;;;;;;11.87;80.24;101112.13;1786843;78;21046;-81
2021/09/18 07:57:12;;;;;;;3.80;3.15;;;;;;;11.87;80.24;101109.92;1784857;80;21088;-80
2021/09/18 07:59:39;;;;;;;3.30;2.27;;;;;;;11.92;80.36;101108.73;1787292;80;21742;-81
2021/09/18 08:02:05;;;;;;;3.22;2.25;;;;;;;11.92;80.25;101120.61;1784913;80;21057;-81
2021/09/18 08:04:33;;;;;;;3.15;2.25;;;;;;;11.94;80.27;101127.73;1783544;80;20987;-81
2021/09/18 08:07:00;;;;;;;4.17;2.65;;;;;;;11.96;80.17;101120.75;1793641;80;21563;-80
2021/09/18 08:09:26;;;;;;;4.65;2.80;;;;;;;12.00;80.09;101114.69;1793698;79;21152;-81
2021/09/18 08:11:54;;;;;;;10.40;3.80;;;;;;;12.03;80.24;101111.22;1793717;80;21783;-81
2021/09/18 08:14:21;;;;;;;6.50;3.02;;;;;;;12.10;80.25;101110.52;1784736;80;21003;-81
2021/09/18 08:16:48;;;;;;;6.78;2.83;;;;;;;12.17;80.34;101115.10;1787196;80;21072;-81
2021/09/18 08:19:17;;;;;;;4.05;3.00;;;;;;;12.30;80.43;101115.41;1784847;80;21081;-81
2021/09/18 08:21:43;;;;;;;5.80;2.60;;;;;;;12.38;80.03;101119.99;1787206;80;21077;-81
2021/09/18 08:24:10;;;;;;;7.80;2.92;;;;;;;12.41;79.75;101120.52;1784834;80;21904;-81
2021/09/18 08:26:36;;;;;;;5.22;3.70;;;;;;;12.44;79.76;101125.44;1783555;80;21050;-81
2021/09/18 08:29:03;;;;;;;6.55;4.05;;;;;;;12.50;79.56;101126.02;1793735;80;21097;-81
2021/09/18 08:31:30;;;;;;;4.75;3.40;;;;;;;12.51;79.32;101134.38;1793618;80;21073;-81
2021/09/18 08:33:57;;;;;;;9.45;3.90;;;;;;;12.63;79.44;101123.19;1793522;79;21132;-81
2021/09/18 08:36:23;;;;;;;9.83;3.42;;;;;;;12.72;79.26;101134.41;1785019;80;21738;-81
2021/09/18 08:38:50;;;;;;;4.83;3.42;;;;;;;12.81;79.22;101128.89;1783687;80;21077;-81
2021/09/18 08:41:16;;;;;;;3.72;2.98;;;;;;;12.87;78.89;101133.41;1793988;80;20998;-81
2021/09/18 08:43:44;;;;;;;6.75;3.42;;;;;;;12.95;78.80;101138.86;1793968;79;21069;-81
2021/09/18 08:46:11;;;;;;;4.37;3.70;;;;;;;13.05;78.68;101128.97;1793763;79;21137;-81
2021/09/18 08:48:42;;;;;;;5.10;3.47;;;;;;;13.21;78.78;101135.45;1793434;80;40879;-81
2021/09/18 08:51:10;;;;;;;4.97;3.40;;;;;;;13.37;78.48;101124.80;1793258;79;21061;-81
2021/09/18 08:53:37;;;;;;;6.53;3.33;;;;;;;13.46;77.99;101128.94;1784575;79;21108;-81
2021/09/18 08:56:04;;;;;;;6.58;3.00;;;;;;;13.59;77.93;101124.78;1787220;79;21064;-81
2021/09/18 08:58:40;;;;;;;5.35;3.40;;;;;;;13.71;77.73;101124.98;1784799;80;21050;-81
2021/09/18 09:01:01;;;;;;;4.62;2.90;;;;;;;13.91;77.75;101128.00;1785546;80;21755;-81
2021/09/18 09:03:33;;;;;;;7.28;3.67;;;;;;;14.04;77.22;101127.78;1784691;80;21100;-81
2021/09/18 09:06:04;;;;;;;6.60;3.42;;;;;;;14.09;76.76;101137.11;1785500;80;21061;-81
2021/09/18 09:08:31;;;;;;;5.50;3.33;;;;;;;14.03;76.25;101122.45;1784834;80;21535;-81
2021/09/18 09:10:58;;;;;;;8.03;3.37;;;;;;;13.88;75.99;101132.34;1783645;80;21069;-81
2021/09/18 09:13:25;;;;;;;5.70;3.00;;;;;;;13.85;76.39;101133.20;1793638;80;21744;-81
2021/09/18 09:16:07;;;;;;;6.05;3.30;;;;;;;13.89;76.43;101134.11;1793631;80;21155;-81
2021/09/18 09:18:40;;;;;;;4.62;3.85;;;;;;;14.01;76.62;101138.31;1772220;79;21030;-81
2021/09/18 09:21:18;;;;;;;7.90;3.45;;;;;;;14.17;76.52;101136.38;1793807;79;21061;-82
2021/09/18 09:23:47;;;;;;;7.20;3.50;;;;;;;14.25;76.25;101135.18;1793160;78;21006;-82
2021/09/18 09:26:17;;;;;;;5.25;3.35;;;;;;;14.34;76.27;101147.25;1766237;80;21414;-81
2021/09/18 09:28:46;;;;;;;4.75;3.12;;;;;;;14.37;75.82;101149.92;1792770;80;20998;-81
2021/09/18 09:31:30;;;;;;;6.25;3.37;;;;;;;14.29;75.71;101146.71;1792444;79;21018;-81
2021/09/18 09:34:11;;;;;;;5.50;3.58;;;;;;;14.21;75.72;101145.27;1793346;79;21554;-81
2021/09/18 09:36:47;;;;;;;4.72;3.80;;;;;;;14.15;75.67;101148.70;1793059;78;21186;-81
2021/09/18 09:39:16;;;;;;;6.12;3.45;;;;;;;13.97;75.50;101151.03;1793422;79;21761;-81
2021/09/18 09:41:54;;;;;;;4.08;3.37;;;;;;;13.86;75.77;101151.28;1793719;80;21089;-80
2021/09/18 09:44:24;;;;;;;4.15;3.33;;;;;;;13.83;75.92;101155.18;1784887;80;20990;-80
2021/09/18 09:47:10;;;;;;;4.17;3.42;;;;;;;13.82;76.01;101152.09;1785871;80;21053;-80
2021/09/18 09:49:48;;;;;;;4.05;2.65;;;;;;;13.82;76.10;101148.13;1784963;80;21630;-80
2021/09/18 09:52:25;;;;;;;6.05;3.02;;;;;;;13.90;76.20;101148.70;1787400;80;22569;-81
2021/09/18 09:54:59;;;;;;;5.15;2.75;;;;;;;13.98;75.70;101163.38;1784627;79;21066;-81
2021/09/18 09:57:27;;;;;;;6.37;2.90;;;;;;;13.90;75.45;101147.38;1764013;80;21021;-81
2021/09/18 10:00:10;;;;;;;4.90;2.98;;;;;;;13.88;75.56;101146.90;1784217;80;21015;-81
2021/09/18 10:02:37;;;;;;;3.98;3.10;;;;;;;13.93;75.44;101151.41;1787696;80;21201;-81
2021/09/18 10:05:07;;;;;;;5.10;3.08;;;;;;;13.97;75.21;101147.06;1784931;80;21912;-81
2021/09/18 10:07:35;;;;;;;3.98;3.02;;;;;;;14.06;75.15;101160.87;1783520;79;21041;-81
2021/09/18 10:10:07;;;;;;;4.40;3.12;;;;;;;14.11;75.12;101156.55;1793775;80;21066;-80
2021/09/18 10:12:35;;;;;;;5.33;3.27;;;;;;;14.15;74.94;101163.67;1793941;80;21061;-81
2021/09/18 10:15:09;;;;;;;6.50;3.35;;;;;;;14.14;74.66;101162.80;1794076;78;21061;-80
2021/09/18 10:17:40;;;;;;;4.08;3.50;;;;;;;14.14;74.39;101164.56;1784815;80;21846;-81
2021/09/18 10:20:12;;;;;;;4.25;3.33;;;;;;;14.07;74.32;101165.31;1787146;80;21061;-81
2021/09/18 10:25:33;;;;;;;6.70;3.20;;;;;;;14.00;74.46;101172.24;1779570;80;21011;-82
2021/09/18 10:28:10;;;;;;;8.08;4.85;;;;;;;13.95;74.41;101163.35;1789468;79;21628;-82
2021/09/18 10:30:41;;;;;;;10.03;3.92;;;;;;;13.94;74.51;101168.17;1789595;80;21913;-81
2021/09/18 10:33:30;;;;;;;9.13;3.67;;;;;;;13.96;74.64;101166.44;1770842;78;21087;-81
2021/09/18 10:36:09;;;;;;;5.55;3.27;;;;;;;13.96;74.52;101169.08;1761869;80;21640;-81
2021/09/18 10:38:48;;;;;;;3.95;3.20;;;;;;;13.96;74.38;101187.20;1776820;80;20999;-82
2021/09/18 10:41:21;;;;;;;4.80;3.52;;;;;;;13.91;73.85;101177.40;1796483;79;21051;-81
2021/09/18 10:43:57;;;;;;;8.00;4.65;;;;;;;13.87;73.92;101182.15;1790442;80;22270;-81
2021/09/18 10:46:49;;;;;;;4.30;3.47;;;;;;;13.90;74.03;101180.89;1793240;79;21042;-81
2021/09/18 10:49:40;;;;;;;5.72;3.50;;;;;;;13.95;74.01;101176.14;1798101;79;21064;-81
2021/09/18 10:52:25;;;;;;;8.10;3.52;;;;;;;13.99;73.77;101173.13;1786386;80;20999;-82
2021/09/18 10:55:08;;;;;;;8.85;5.33;;;;;;;14.03;73.42;101177.59;1767676;80;20998;-82
2021/09/18 10:57:51;;;;;;;5.28;3.40;;;;;;;14.08;73.47;101174.61;1779781;80;21820;-82
2021/09/18 11:00:26;;;;;;;5.80;4.00;;;;;;;14.09;73.29;101191.38;1781195;80;21089;-82
2021/09/18 11:03:00;;;;;;;7.55;4.12;;;;;;;14.07;73.26;101182.08;1786627;80;22244;-82
2021/09/18 11:05:30;;;;;;;;;;;;;;;14.12;73.14;101180.85;1774504;80;21017;-83
2021/09/18 11:08:19;;;;;;;7.80;4.42;;;;;;;14.20;73.13;101184.51;1791424;78;20218;-82
2021/09/18 11:11:03;;;;;;;7.25;3.95;;;;;;;14.19;72.90;101188.92;1787518;80;21764;-83
2021/09/18 11:13:39;;;;;;;6.75;3.95;;;;;;;14.15;72.76;101192.80;1748281;81;21046;-88
2021/09/18 11:16:20;;;;;;;6.00;4.53;;;;;;;14.10;72.64;101187.44;1783423;80;21148;-84
2021/09/18 11:19:09;;;;;;;6.83;3.92;;;;;;;14.06;72.65;101196.60;1761789;80;21066;-85
2021/09/18 11:21:43;;;;;;;6.70;4.30;;;;;;;14.02;72.69;101203.63;1790255;80;20968;-84
2021/09/18 11:24:21;;;;;;;6.70;4.33;;;;;;;14.03;72.47;101205.39;1774198;80;21838;-84
2021/09/18 11:26:59;;;;;;;6.97;3.75;;;;;;;13.92;72.34;101205.19;1771121;80;21105;-85
2021/09/18 11:29:37;;;;;;;7.72;4.75;;;;;;;13.90;72.54;101203.39;1782451;80;21085;-84
2021/09/18 11:32:25;;;;;;;6.72;4.30;;;;;;;13.93;72.86;101206.10;1787181;80;21027;-83
2021/09/18 11:34:55;;;;;;;8.13;4.85;;;;;;;14.06;72.50;101208.52;1787515;80;21051;-84
2021/09/18 11:37:31;;;;;;;5.60;3.90;;;;;;;14.05;72.39;101212.92;1786684;80;21749;-84